Decoded Metar for LFRZ (ST.-NAZAIRE in FRANCE) (IATA:SNR) | Meteo·Mobile Aviation Weather
aviador You're here:

LFRZ Decoded Metar

ST.-NAZAIRE in FRANCE
Report Time2019-02-21 23:30:00
UTC Time2019-02-21 23:53:55
Flight Rules lifr LIFR
Wind060° at 07 kt
W.Decomp.*RWY 08: 6.7 kt HW 2.2 kt LCW
W.Rank060° ranks 14
Current wind is above 060° avg. (6.7)
Visibility0700 m
Phenomena:Fog
Clouds:N/A
Expected CloudBase > 400 ft AGL from Temp-Dew spread
CeilingNone
Temp05°C (ISA -10)
Dew Point04°C (93% RH)
AAT1.2°C
QNH1031 hPa
Density Alt-1,693 ft
Elevation13 ft
Report Wrong Elevation
Raw Report
METAR LFRZ 212330Z AUTO 06007KT 0700 R25/0900N FG VV/// 05/04 Q1031
TEMPO 0300 FG=

Extra information for LFRZ:More info

Metar Taf Metar & Taf Last 4 Metars F.Rules Stats Wind Profile Meteogram Temp Stats Airport Information Weather charts Add Link Nearby VenuesMetar ALERT Operation Metar Decoded Social comments